sensor_id;sensor_type;location;lat;lon;timestamp;pressure;altitude;pressure_sealevel;temperature;humidity
34482;BME280;20720;48.886;9.388;2023-04-21T00:00:47;98043.66;;;8.79;100.00
34482;BME280;20720;48.886;9.388;2023-04-21T00:03:12;98046.19;;;8.66;100.00
34482;BME280;20720;48.886;9.388;2023-04-21T00:05:37;98050.50;;;7.90;100.00
34482;BME280;20720;48.886;9.388;2023-04-21T00:08:09;98047.91;;;8.45;100.00
34482;BME280;20720;48.886;9.388;2023-04-21T00:10:34;98050.25;;;8.34;100.00
34482;BME280;20720;48.886;9.388;2023-04-21T00:12:59;98052.06;;;7.85;100.00
34482;BME280;20720;48.886;9.388;2023-04-21T00:15:24;98036.06;;;7.73;100.00
34482;BME280;20720;48.886;9.388;2023-04-21T00:17:50;98036.16;;;8.07;100.00
34482;BME280;20720;48.886;9.388;2023-04-21T00:20:16;98035.50;;;8.26;100.00
34482;BME280;20720;48.886;9.388;2023-04-21T00:22:41;98043.97;;;8.28;100.00
34482;BME280;20720;48.886;9.388;2023-04-21T00:25:07;98040.00;;;8.11;100.00
34482;BME280;20720;48.886;9.388;2023-04-21T00:27:32;98028.22;;;8.01;100.00
34482;BME280;20720;48.886;9.388;2023-04-21T00:29:57;98027.72;;;8.12;100.00
34482;BME280;20720;48.886;9.388;2023-04-21T00:32:23;98024.56;;;7.95;100.00
34482;BME280;20720;48.886;9.388;2023-04-21T00:34:48;98020.44;;;8.35;100.00
34482;BME280;20720;48.886;9.388;2023-04-21T00:37:13;98022.03;;;8.29;100.00
34482;BME280;20720;48.886;9.388;2023-04-21T00:39:38;98021.81;;;8.24;100.00
34482;BME280;20720;48.886;9.388;2023-04-21T00:42:04;98020.66;;;8.06;100.00
34482;BME280;20720;48.886;9.388;2023-04-21T00:44:29;98020.72;;;8.19;100.00
34482;BME280;20720;48.886;9.388;2023-04-21T00:46:54;98019.81;;;8.26;100.00
34482;BME280;20720;48.886;9.388;2023-04-21T00:49:19;98015.72;;;8.51;100.00
34482;BME280;20720;48.886;9.388;2023-04-21T00:51:46;98014.75;;;8.59;100.00
34482;BME280;20720;48.886;9.388;2023-04-21T00:54:13;98015.34;;;8.54;100.00
34482;BME280;20720;48.886;9.388;2023-04-21T00:56:38;98014.56;;;8.61;100.00
34482;BME280;20720;48.886;9.388;2023-04-21T00:59:03;97996.44;;;8.66;100.00
34482;BME280;20720;48.886;9.388;2023-04-21T01:01:31;98006.72;;;8.61;100.00
34482;BME280;20720;48.886;9.388;2023-04-21T01:03:59;98007.88;;;8.51;100.00
34482;BME280;20720;48.886;9.388;2023-04-21T01:06:27;98006.28;;;8.57;100.00
34482;BME280;20720;48.886;9.388;2023-04-21T01:08:54;98006.41;;;8.42;100.00
34482;BME280;20720;48.886;9.388;2023-04-21T01:11:20;98001.75;;;8.10;100.00
34482;BME280;20720;48.886;9.388;2023-04-21T01:13:45;98005.81;;;8.47;100.00
34482;BME280;20720;48.886;9.388;2023-04-21T01:16:15;98010.16;;;8.27;100.00
34482;BME280;20720;48.886;9.388;2023-04-21T01:18:41;97995.25;;;7.72;100.00
34482;BME280;20720;48.886;9.388;2023-04-21T01:21:06;98003.41;;;8.45;100.00
34482;BME280;20720;48.886;9.388;2023-04-21T01:23:31;97999.22;;;8.51;100.00
34482;BME280;20720;48.886;9.388;2023-04-21T01:25:57;97994.25;;;8.28;100.00
34482;BME280;20720;48.886;9.388;2023-04-21T01:28:22;97980.25;;;7.38;100.00
34482;BME280;20720;48.886;9.388;2023-04-21T01:30:48;97974.63;;;8.45;100.00
34482;BME280;20720;48.886;9.388;2023-04-21T01:33:14;97980.69;;;8.52;100.00
34482;BME280;20720;48.886;9.388;2023-04-21T01:35:39;97983.88;;;8.48;100.00
34482;BME280;20720;48.886;9.388;2023-04-21T01:38:05;97985.88;;;8.46;100.00
34482;BME280;20720;48.886;9.388;2023-04-21T01:40:30;97993.50;;;8.34;100.00
34482;BME280;20720;48.886;9.388;2023-04-21T01:42:55;97983.91;;;8.54;100.00
34482;BME280;20720;48.886;9.388;2023-04-21T01:45:21;97977.91;;;8.61;100.00
34482;BME280;20720;48.886;9.388;2023-04-21T01:47:46;97990.59;;;8.57;100.00
34482;BME280;20720;48.886;9.388;2023-04-21T01:50:11;97989.72;;;8.50;100.00
34482;BME280;20720;48.886;9.388;2023-04-21T01:52:37;97990.94;;;8.47;100.00
34482;BME280;20720;48.886;9.388;2023-04-21T01:55:02;98003.91;;;8.00;100.00
34482;BME280;20720;48.886;9.388;2023-04-21T01:57:27;97985.63;;;8.07;100.00
34482;BME280;20720;48.886;9.388;2023-04-21T01:59:53;97989.03;;;8.35;100.00
34482;BME280;20720;48.886;9.388;2023-04-21T02:02:18;97992.69;;;8.40;100.00
34482;BME280;20720;48.886;9.388;2023-04-21T02:04:43;97994.69;;;8.38;100.00
34482;BME280;20720;48.886;9.388;2023-04-21T02:07:09;97998.75;;;8.13;100.00
34482;BME280;20720;48.886;9.388;2023-04-21T02:09:34;97995.84;;;8.29;100.00
34482;BME280;20720;48.886;9.388;2023-04-21T02:11:59;97999.84;;;8.25;100.00
34482;BME280;20720;48.886;9.388;2023-04-21T02:14:26;97999.84;;;7.98;100.00
34482;BME280;20720;48.886;9.388;2023-04-21T02:16:51;97994.13;;;7.60;100.00
34482;BME280;20720;48.886;9.388;2023-04-21T02:19:17;98004.97;;;8.12;100.00
34482;BME280;20720;48.886;9.388;2023-04-21T02:21:42;98003.47;;;8.24;100.00
34482;BME280;20720;48.886;9.388;2023-04-21T02:24:07;98004.53;;;8.02;100.00
34482;BME280;20720;48.886;9.388;2023-04-21T02:26:32;97991.63;;;8.01;100.00
34482;BME280;20720;48.886;9.388;2023-04-21T02:28:58;97990.16;;;8.19;100.00
34482;BME280;20720;48.886;9.388;2023-04-21T02:31:23;97995.31;;;8.13;100.00
34482;BME280;20720;48.886;9.388;2023-04-21T02:33:49;97993.66;;;8.05;100.00
34482;BME280;20720;48.886;9.388;2023-04-21T02:36:14;97992.44;;;8.01;100.00
34482;BME280;20720;48.886;9.388;2023-04-21T02:38:39;97992.28;;;8.09;100.00
34482;BME280;20720;48.886;9.388;2023-04-21T02:41:05;97996.22;;;7.71;100.00
34482;BME280;20720;48.886;9.388;2023-04-21T02:43:30;97987.88;;;7.82;100.00
34482;BME280;20720;48.886;9.388;2023-04-21T02:45:56;97985.56;;;7.73;100.00
34482;BME280;20720;48.886;9.388;2023-04-21T02:48:21;97988.09;;;7.59;100.00
34482;BME280;20720;48.886;9.388;2023-04-21T02:50:51;97994.63;;;7.70;100.00
34482;BME280;20720;48.886;9.388;2023-04-21T02:53:20;97991.63;;;7.10;100.00
34482;BME280;20720;48.886;9.388;2023-04-21T02:55:45;97998.84;;;7.50;100.00
34482;BME280;20720;48.886;9.388;2023-04-21T02:58:10;98002.72;;;7.82;100.00
34482;BME280;20720;48.886;9.388;2023-04-21T03:00:36;97998.09;;;7.14;100.00
34482;BME280;20720;48.886;9.388;2023-04-21T03:03:01;98002.59;;;7.20;100.00
34482;BME280;20720;48.886;9.388;2023-04-21T03:05:27;98000.97;;;7.61;100.00
34482;BME280;20720;48.886;9.388;2023-04-21T03:07:52;97997.38;;;7.20;100.00
34482;BME280;20720;48.886;9.388;2023-04-21T03:10:17;97996.25;;;7.50;100.00
34482;BME280;20720;48.886;9.388;2023-04-21T03:12:43;98001.94;;;7.81;100.00
34482;BME280;20720;48.886;9.388;2023-04-21T03:15:09;97992.00;;;7.70;100.00
34482;BME280;20720;48.886;9.388;2023-04-21T03:17:35;97987.41;;;7.09;100.00
34482;BME280;20720;48.886;9.388;2023-04-21T03:20:00;97979.50;;;7.02;100.00
34482;BME280;20720;48.886;9.388;2023-04-21T03:22:29;97983.19;;;7.08;100.00
34482;BME280;20720;48.886;9.388;2023-04-21T03:24:54;97983.34;;;7.06;100.00
34482;BME280;20720;48.886;9.388;2023-04-21T03:27:19;97978.66;;;7.37;100.00
34482;BME280;20720;48.886;9.388;2023-04-21T03:29:45;97976.53;;;7.47;100.00
34482;BME280;20720;48.886;9.388;2023-04-21T03:32:10;97970.09;;;5.93;100.00
34482;BME280;20720;48.886;9.388;2023-04-21T03:34:35;97953.19;;;6.83;100.00
34482;BME280;20720;48.886;9.388;2023-04-21T03:37:00;97958.19;;;7.20;100.00
34482;BME280;20720;48.886;9.388;2023-04-21T03:39:26;97970.53;;;7.53;100.00
34482;BME280;20720;48.886;9.388;2023-04-21T03:41:51;97964.88;;;7.50;100.00
34482;BME280;20720;48.886;9.388;2023-04-21T03:44:16;97974.59;;;7.35;100.00
34482;BME280;20720;48.886;9.388;2023-04-21T03:46:42;97973.66;;;7.42;100.00
34482;BME280;20720;48.886;9.388;2023-04-21T03:49:07;97980.19;;;7.53;100.00
34482;BME280;20720;48.886;9.388;2023-04-21T03:51:32;97978.88;;;7.42;100.00
34482;BME280;20720;48.886;9.388;2023-04-21T03:53:57;97976.81;;;7.59;100.00
34482;BME280;20720;48.886;9.388;2023-04-21T03:56:23;97984.91;;;7.64;100.00
34482;BME280;20720;48.886;9.388;2023-04-21T03:58:48;97992.25;;;7.54;100.00
34482;BME280;20720;48.886;9.388;2023-04-21T04:01:14;97991.38;;;7.68;100.00
34482;BME280;20720;48.886;9.388;2023-04-21T04:03:39;97995.47;;;7.77;100.00
34482;BME280;20720;48.886;9.388;2023-04-21T04:06:05;97991.28;;;7.55;100.00
34482;BME280;20720;48.886;9.388;2023-04-21T04:08:30;97983.03;;;6.95;100.00
34482;BME280;20720;48.886;9.388;2023-04-21T04:10:56;97987.94;;;7.19;100.00
34482;BME280;20720;48.886;9.388;2023-04-21T04:13:21;97995.31;;;7.36;100.00
34482;BME280;20720;48.886;9.388;2023-04-21T04:15:48;98005.94;;;7.35;100.00
34482;BME280;20720;48.886;9.388;2023-04-21T04:18:13;98003.91;;;7.30;100.00
34482;BME280;20720;48.886;9.388;2023-04-21T04:20:39;97993.66;;;6.14;100.00
34482;BME280;20720;48.886;9.388;2023-04-21T04:23:04;97991.00;;;6.87;100.00
34482;BME280;20720;48.886;9.388;2023-04-21T04:25:30;97995.50;;;7.14;100.00
34482;BME280;20720;48.886;9.388;2023-04-21T04:27:55;97995.56;;;7.20;100.00
34482;BME280;20720;48.886;9.388;2023-04-21T04:30:21;98002.41;;;7.21;100.00
34482;BME280;20720;48.886;9.388;2023-04-21T04:32:48;97995.69;;;7.54;100.00
34482;BME280;20720;48.886;9.388;2023-04-21T04:35:13;98000.34;;;7.59;100.00
34482;BME280;20720;48.886;9.388;2023-04-21T04:37:39;97994.22;;;7.73;100.00
34482;BME280;20720;48.886;9.388;2023-04-21T04:40:05;97991.78;;;7.23;100.00
34482;BME280;20720;48.886;9.388;2023-04-21T04:42:34;97982.63;;;7.12;100.00
34482;BME280;20720;48.886;9.388;2023-04-21T04:45:01;97995.00;;;7.46;100.00
34482;BME280;20720;48.886;9.388;2023-04-21T04:47:26;97996.00;;;7.45;100.00
34482;BME280;20720;48.886;9.388;2023-04-21T04:49:52;97982.06;;;6.02;100.00
34482;BME280;20720;48.886;9.388;2023-04-21T04:52:18;97977.72;;;6.52;100.00
34482;BME280;20720;48.886;9.388;2023-04-21T04:54:43;97992.78;;;7.43;100.00
34482;BME280;20720;48.886;9.388;2023-04-21T04:57:08;98007.69;;;7.98;100.00
34482;BME280;20720;48.886;9.388;2023-04-21T04:59:34;98016.00;;;7.80;100.00
34482;BME280;20720;48.886;9.388;2023-04-21T05:02:00;98030.56;;;7.89;100.00
34482;BME280;20720;48.886;9.388;2023-04-21T05:04:26;98021.53;;;8.19;100.00
34482;BME280;20720;48.886;9.388;2023-04-21T05:06:52;98015.56;;;8.25;100.00
34482;BME280;20720;48.886;9.388;2023-04-21T05:09:17;97996.25;;;8.26;100.00
34482;BME280;20720;48.886;9.388;2023-04-21T05:11:42;98011.47;;;8.50;100.00
34482;BME280;20720;48.886;9.388;2023-04-21T05:14:07;98026.75;;;7.64;100.00
34482;BME280;20720;48.886;9.388;2023-04-21T05:16:33;98022.25;;;8.07;100.00
34482;BME280;20720;48.886;9.388;2023-04-21T05:19:01;98016.81;;;8.08;100.00
34482;BME280;20720;48.886;9.388;2023-04-21T05:21:27;98008.41;;;8.40;100.00
34482;BME280;20720;48.886;9.388;2023-04-21T05:23:57;98008.09;;;8.63;100.00
34482;BME280;20720;48.886;9.388;2023-04-21T05:26:24;98004.03;;;8.47;100.00
34482;BME280;20720;48.886;9.388;2023-04-21T05:28:49;98015.91;;;8.22;100.00
34482;BME280;20720;48.886;9.388;2023-04-21T05:31:15;98010.09;;;8.54;100.00
34482;BME280;20720;48.886;9.388;2023-04-21T05:33:40;98026.88;;;9.20;100.00
34482;BME280;20720;48.886;9.388;2023-04-21T05:36:07;98018.28;;;8.86;100.00
34482;BME280;20720;48.886;9.388;2023-04-21T05:38:33;98031.88;;;8.62;100.00
34482;BME280;20720;48.886;9.388;2023-04-21T05:40:58;98026.03;;;9.07;100.00
34482;BME280;20720;48.886;9.388;2023-04-21T05:43:24;98033.38;;;8.77;100.00
34482;BME280;20720;48.886;9.388;2023-04-21T05:45:49;98027.56;;;8.88;100.00
34482;BME280;20720;48.886;9.388;2023-04-21T05:48:14;98029.25;;;8.62;100.00
34482;BME280;20720;48.886;9.388;2023-04-21T05:50:40;98022.03;;;9.24;100.00
34482;BME280;20720;48.886;9.388;2023-04-21T05:53:05;98012.66;;;8.89;100.00
34482;BME280;20720;48.886;9.388;2023-04-21T05:55:32;98014.44;;;9.55;100.00
34482;BME280;20720;48.886;9.388;2023-04-21T05:57:58;98018.69;;;9.69;100.00
34482;BME280;20720;48.886;9.388;2023-04-21T06:00:23;98008.22;;;9.95;100.00
34482;BME280;20720;48.886;9.388;2023-04-21T06:02:48;98006.13;;;10.50;100.00
34482;BME280;20720;48.886;9.388;2023-04-21T06:05:13;98003.31;;;10.31;100.00
34482;BME280;20720;48.886;9.388;2023-04-21T06:07:39;97999.25;;;10.62;100.00
34482;BME280;20720;48.886;9.388;2023-04-21T06:10:04;98000.34;;;10.85;100.00
34482;BME280;20720;48.886;9.388;2023-04-21T06:12:30;98004.72;;;10.98;100.00
34482;BME280;20720;48.886;9.388;2023-04-21T06:14:55;97996.28;;;8.74;100.00
34482;BME280;20720;48.886;9.388;2023-04-21T06:17:22;97971.91;;;8.67;100.00
34482;BME280;20720;48.886;9.388;2023-04-21T06:19:48;97977.19;;;8.86;100.00
34482;BME280;20720;48.886;9.388;2023-04-21T06:22:23;97967.66;;;9.78;100.00
34482;BME280;20720;48.886;9.388;2023-04-21T06:24:48;97984.56;;;10.34;100.00
34482;BME280;20720;48.886;9.388;2023-04-21T06:27:14;97983.59;;;11.24;100.00
34482;BME280;20720;48.886;9.388;2023-04-21T06:29:40;97989.03;;;10.85;100.00
34482;BME280;20720;48.886;9.388;2023-04-21T06:32:06;97986.41;;;9.62;100.00
34482;BME280;20720;48.886;9.388;2023-04-21T06:34:32;97975.50;;;9.98;100.00
34482;BME280;20720;48.886;9.388;2023-04-21T06:36:57;97974.06;;;10.02;100.00
34482;BME280;20720;48.886;9.388;2023-04-21T06:39:22;97984.84;;;10.71;100.00
34482;BME280;20720;48.886;9.388;2023-04-21T06:41:48;97993.00;;;11.38;100.00
34482;BME280;20720;48.886;9.388;2023-04-21T06:44:13;98000.38;;;11.23;100.00
34482;BME280;20720;48.886;9.388;2023-04-21T06:46:41;98002.75;;;10.87;100.00
34482;BME280;20720;48.886;9.388;2023-04-21T06:49:07;98009.88;;;11.24;100.00
34482;BME280;20720;48.886;9.388;2023-04-21T06:51:33;98008.03;;;10.87;100.00
34482;BME280;20720;48.886;9.388;2023-04-21T06:53:58;98015.31;;;11.29;100.00
34482;BME280;20720;48.886;9.388;2023-04-21T06:56:26;98025.63;;;10.80;100.00
34482;BME280;20720;48.886;9.388;2023-04-21T06:58:51;98033.59;;;10.47;100.00
34482;BME280;20720;48.886;9.388;2023-04-21T07:01:16;98023.34;;;12.21;100.00
34482;BME280;20720;48.886;9.388;2023-04-21T07:03:41;98023.63;;;12.38;100.00
34482;BME280;20720;48.886;9.388;2023-04-21T07:06:07;98008.53;;;12.63;100.00
34482;BME280;20720;48.886;9.388;2023-04-21T07:08:32;98005.03;;;11.83;100.00
34482;BME280;20720;48.886;9.388;2023-04-21T07:10:57;97992.47;;;12.10;100.00
34482;BME280;20720;48.886;9.388;2023-04-21T07:13:23;97994.81;;;12.36;100.00
34482;BME280;20720;48.886;9.388;2023-04-21T07:15:48;97986.56;;;13.05;100.00
34482;BME280;20720;48.886;9.388;2023-04-21T07:18:13;97997.72;;;12.10;100.00
34482;BME280;20720;48.886;9.388;2023-04-21T07:20:38;98006.00;;;11.26;100.00
34482;BME280;20720;48.886;9.388;2023-04-21T07:23:04;97997.72;;;11.29;100.00
34482;BME280;20720;48.886;9.388;2023-04-21T07:25:29;97990.06;;;10.84;100.00
34482;BME280;20720;48.886;9.388;2023-04-21T07:27:54;97984.94;;;11.33;100.00
34482;BME280;20720;48.886;9.388;2023-04-21T07:30:20;97980.81;;;13.08;100.00
34482;BME280;20720;48.886;9.388;2023-04-21T07:32:45;97980.84;;;12.17;100.00
34482;BME280;20720;48.886;9.388;2023-04-21T07:35:10;97970.53;;;12.70;100.00
34482;BME280;20720;48.886;9.388;2023-04-21T07:37:36;97973.28;;;13.41;100.00
34482;BME280;20720;48.886;9.388;2023-04-21T07:40:01;97967.25;;;14.22;100.00
34482;BME280;20720;48.886;9.388;2023-04-21T07:42:27;97968.03;;;13.23;100.00
34482;BME280;20720;48.886;9.388;2023-04-21T07:44:52;97969.75;;;13.47;100.00
34482;BME280;20720;48.886;9.388;2023-04-21T07:47:17;97968.41;;;13.79;100.00
34482;BME280;20720;48.886;9.388;2023-04-21T07:49:43;97966.59;;;14.38;100.00
34482;BME280;20720;48.886;9.388;2023-04-21T07:52:08;97969.56;;;14.06;100.00
34482;BME280;20720;48.886;9.388;2023-04-21T07:54:34;97965.16;;;14.70;100.00
34482;BME280;20720;48.886;9.388;2023-04-21T07:56:59;97975.47;;;14.83;100.00
34482;BME280;20720;48.886;9.388;2023-04-21T07:59:26;97970.56;;;15.03;100.00
34482;BME280;20720;48.886;9.388;2023-04-21T08:01:52;97968.56;;;14.82;100.00
34482;BME280;20720;48.886;9.388;2023-04-21T08:04:17;97974.53;;;13.09;100.00
34482;BME280;20720;48.886;9.388;2023-04-21T08:06:42;97971.22;;;12.66;100.00
34482;BME280;20720;48.886;9.388;2023-04-21T08:09:07;97962.78;;;12.57;100.00
34482;BME280;20720;48.886;9.388;2023-04-21T08:11:32;97972.81;;;12.67;100.00
34482;BME280;20720;48.886;9.388;2023-04-21T08:13:58;97969.81;;;14.40;100.00
34482;BME280;20720;48.886;9.388;2023-04-21T08:16:23;97981.06;;;15.26;100.00
34482;BME280;20720;48.886;9.388;2023-04-21T08:18:48;97991.28;;;15.62;100.00
34482;BME280;20720;48.886;9.388;2023-04-21T08:21:14;97980.50;;;16.19;100.00
34482;BME280;20720;48.886;9.388;2023-04-21T08:23:39;97978.63;;;16.36;100.00
34482;BME280;20720;48.886;9.388;2023-04-21T08:26:04;97992.78;;;16.25;100.00
34482;BME280;20720;48.886;9.388;2023-04-21T08:28:30;97990.22;;;14.79;100.00
34482;BME280;20720;48.886;9.388;2023-04-21T08:30:55;97991.75;;;15.31;100.00
34482;BME280;20720;48.886;9.388;2023-04-21T08:33:20;97993.13;;;16.12;100.00
34482;BME280;20720;48.886;9.388;2023-04-21T08:35:46;97989.56;;;16.56;100.00
34482;BME280;20720;48.886;9.388;2023-04-21T08:38:11;97991.75;;;16.26;98.23
34482;BME280;20720;48.886;9.388;2023-04-21T08:40:37;97990.50;;;16.88;98.34
34482;BME280;20720;48.886;9.388;2023-04-21T08:43:04;97986.16;;;17.78;92.80
34482;BME280;20720;48.886;9.388;2023-04-21T08:45:30;97989.91;;;18.56;83.67
34482;BME280;20720;48.886;9.388;2023-04-21T08:47:58;97985.31;;;18.98;80.02
34482;BME280;20720;48.886;9.388;2023-04-21T08:50:26;97986.44;;;18.19;79.24
34482;BME280;20720;48.886;9.388;2023-04-21T08:52:53;97987.69;;;17.69;83.54
34482;BME280;20720;48.886;9.388;2023-04-21T08:55:19;97996.50;;;17.48;91.04
34482;BME280;20720;48.886;9.388;2023-04-21T08:57:44;97988.09;;;18.66;79.98
34482;BME280;20720;48.886;9.388;2023-04-21T09:00:10;97996.88;;;16.49;95.71
34482;BME280;20720;48.886;9.388;2023-04-21T09:02:55;97991.53;;;17.88;82.79
34482;BME280;20720;48.886;9.388;2023-04-21T09:05:22;97990.31;;;18.85;77.29
34482;BME280;20720;48.886;9.388;2023-04-21T09:07:49;97985.88;;;19.15;71.69
34482;BME280;20720;48.886;9.388;2023-04-21T09:10:21;97989.44;;;18.69;74.29
34482;BME280;20720;48.886;9.388;2023-04-21T09:12:49;97986.41;;;19.12;75.18
34482;BME280;20720;48.886;9.388;2023-04-21T09:15:15;97992.94;;;19.66;72.74
34482;BME280;20720;48.886;9.388;2023-04-21T09:17:44;97976.56;;;17.77;84.90
34482;BME280;20720;48.886;9.388;2023-04-21T09:20:14;97982.41;;;16.40;89.65
34482;BME280;20720;48.886;9.388;2023-04-21T09:22:40;97985.28;;;18.05;87.40
34482;BME280;20720;48.886;9.388;2023-04-21T09:25:06;97988.69;;;20.11;73.02
34482;BME280;20720;48.886;9.388;2023-04-21T09:27:31;97978.19;;;19.19;75.43
34482;BME280;20720;48.886;9.388;2023-04-21T09:30:04;97978.56;;;16.90;87.56
34482;BME280;20720;48.886;9.388;2023-04-21T09:32:40;97982.19;;;15.30;98.30
34482;BME280;20720;48.886;9.388;2023-04-21T09:35:09;97980.00;;;14.59;100.00
34482;BME280;20720;48.886;9.388;2023-04-21T09:37:35;97972.41;;;16.47;98.93
34482;BME280;20720;48.886;9.388;2023-04-21T09:40:01;97975.31;;;15.57;99.59
34482;BME280;20720;48.886;9.388;2023-04-21T09:42:31;97977.41;;;16.60;93.68
34482;BME280;20720;48.886;9.388;2023-04-21T09:44:56;97975.91;;;17.12;88.87
34482;BME280;20720;48.886;9.388;2023-04-21T09:47:22;97975.59;;;16.65;94.79
34482;BME280;20720;48.886;9.388;2023-04-21T09:49:51;97988.91;;;20.65;73.98
34482;BME280;20720;48.886;9.388;2023-04-21T09:52:20;97972.56;;;21.35;68.94
34482;BME280;20720;48.886;9.388;2023-04-21T09:54:50;97983.06;;;19.57;73.52
34482;BME280;20720;48.886;9.388;2023-04-21T09:57:20;97972.09;;;17.83;85.57
34482;BME280;20720;48.886;9.388;2023-04-21T09:59:53;97970.84;;;21.10;71.96
34482;BME280;20720;48.886;9.388;2023-04-21T10:02:24;97967.34;;;20.31;73.24
34482;BME280;20720;48.886;9.388;2023-04-21T10:04:51;97957.25;;;21.89;67.07
34482;BME280;20720;48.886;9.388;2023-04-21T10:07:16;97951.13;;;22.88;64.19
34482;BME280;20720;48.886;9.388;2023-04-21T10:09:48;97959.09;;;23.73;60.64
34482;BME280;20720;48.886;9.388;2023-04-21T10:12:16;97949.16;;;22.75;61.39
34482;BME280;20720;48.886;9.388;2023-04-21T10:14:42;97946.03;;;19.70;71.39
34482;BME280;20720;48.886;9.388;2023-04-21T10:17:09;97950.59;;;21.43;67.04
34482;BME280;20720;48.886;9.388;2023-04-21T10:19:36;97939.50;;;22.27;66.28
34482;BME280;20720;48.886;9.388;2023-04-21T10:22:07;97938.38;;;18.82;75.00
34482;BME280;20720;48.886;9.388;2023-04-21T10:24:37;97924.25;;;21.99;65.82
34482;BME280;20720;48.886;9.388;2023-04-21T10:27:03;97919.63;;;22.33;64.10
34482;BME280;20720;48.886;9.388;2023-04-21T10:29:31;97924.34;;;21.11;70.97
34482;BME280;20720;48.886;9.388;2023-04-21T10:31:57;97930.56;;;20.18;70.02
34482;BME280;20720;48.886;9.388;2023-04-21T10:37:10;97927.69;;;22.57;66.50
34482;BME280;20720;48.886;9.388;2023-04-21T10:39:53;97921.56;;;24.32;60.38
34482;BME280;20720;48.886;9.388;2023-04-21T10:42:22;97927.34;;;23.24;59.62
34482;BME280;20720;48.886;9.388;2023-04-21T10:47:42;97915.56;;;22.12;67.14
34482;BME280;20720;48.886;9.388;2023-04-21T10:50:16;97919.44;;;23.14;63.28
34482;BME280;20720;48.886;9.388;2023-04-21T10:52:46;97907.84;;;25.24;57.29
34482;BME280;20720;48.886;9.388;2023-04-21T10:55:15;97910.81;;;24.32;59.25
34482;BME280;20720;48.886;9.388;2023-04-21T10:57:43;97923.59;;;23.44;62.62
34482;BME280;20720;48.886;9.388;2023-04-21T11:00:10;97911.53;;;23.60;59.75
34482;BME280;20720;48.886;9.388;2023-04-21T11:02:36;97916.59;;;25.43;55.35
34482;BME280;20720;48.886;9.388;2023-04-21T11:05:01;97911.81;;;23.90;57.28
34482;BME280;20720;48.886;9.388;2023-04-21T11:07:27;97900.88;;;23.87;57.55
34482;BME280;20720;48.886;9.388;2023-04-21T11:10:06;97904.81;;;21.54;63.09
34482;BME280;20720;48.886;9.388;2023-04-21T11:12:34;97904.41;;;20.05;75.38
34482;BME280;20720;48.886;9.388;2023-04-21T11:15:06;97901.16;;;20.97;72.11
34482;BME280;20720;48.886;9.388;2023-04-21T11:17:32;97902.81;;;19.18;75.67
34482;BME280;20720;48.886;9.388;2023-04-21T11:19:58;97892.69;;;20.85;74.81
34482;BME280;20720;48.886;9.388;2023-04-21T11:22:24;97896.91;;;22.96;62.63
34482;BME280;20720;48.886;9.388;2023-04-21T11:24:53;97894.44;;;26.51;55.17
34482;BME280;20720;48.886;9.388;2023-04-21T11:27:20;97900.81;;;23.22;59.40
34482;BME280;20720;48.886;9.388;2023-04-21T11:29:47;97901.56;;;22.20;66.17
34482;BME280;20720;48.886;9.388;2023-04-21T11:32:13;97900.25;;;24.08;58.97
34482;BME280;20720;48.886;9.388;2023-04-21T11:34:39;97888.28;;;26.68;51.76
34482;BME280;20720;48.886;9.388;2023-04-21T11:37:09;97879.94;;;25.55;53.64
34482;BME280;20720;48.886;9.388;2023-04-21T11:39:35;97897.84;;;22.16;61.86
34482;BME280;20720;48.886;9.388;2023-04-21T11:42:03;97891.22;;;24.18;60.94
34482;BME280;20720;48.886;9.388;2023-04-21T11:46:58;97874.06;;;24.95;54.45
34482;BME280;20720;48.886;9.388;2023-04-21T11:49:25;97872.53;;;27.18;51.99
34482;BME280;20720;48.886;9.388;2023-04-21T11:51:53;97876.66;;;23.60;58.25
34482;BME280;20720;48.886;9.388;2023-04-21T11:54:18;97875.53;;;27.25;51.47
34482;BME280;20720;48.886;9.388;2023-04-21T11:56:47;97875.81;;;26.80;49.21
34482;BME280;20720;48.886;9.388;2023-04-21T11:59:15;97867.28;;;25.78;51.21
34482;BME280;20720;48.886;9.388;2023-04-21T12:01:48;97875.06;;;23.59;60.00
34482;BME280;20720;48.886;9.388;2023-04-21T12:06:44;97870.84;;;23.85;58.98
34482;BME280;20720;48.886;9.388;2023-04-21T12:09:16;97865.25;;;24.13;56.95
34482;BME280;20720;48.886;9.388;2023-04-21T12:11:42;97859.72;;;25.00;54.95
34482;BME280;20720;48.886;9.388;2023-04-21T12:14:11;97856.00;;;26.37;53.07
34482;BME280;20720;48.886;9.388;2023-04-21T12:16:36;97854.81;;;25.38;54.57
34482;BME280;20720;48.886;9.388;2023-04-21T12:19:02;97856.97;;;26.41;51.27
34482;BME280;20720;48.886;9.388;2023-04-21T12:21:28;97855.13;;;28.04;46.59
34482;BME280;20720;48.886;9.388;2023-04-21T12:23:53;97857.06;;;23.08;57.86
34482;BME280;20720;48.886;9.388;2023-04-21T12:26:18;97855.00;;;24.02;55.65
34482;BME280;20720;48.886;9.388;2023-04-21T12:28:44;97855.50;;;23.72;58.73
34482;BME280;20720;48.886;9.388;2023-04-21T12:31:09;97842.69;;;26.32;51.71
34482;BME280;20720;48.886;9.388;2023-04-21T12:33:34;97841.25;;;27.51;48.13
34482;BME280;20720;48.886;9.388;2023-04-21T12:36:00;97841.00;;;28.65;46.85
34482;BME280;20720;48.886;9.388;2023-04-21T12:38:25;97833.56;;;28.62;47.00
34482;BME280;20720;48.886;9.388;2023-04-21T12:40:50;97834.63;;;30.82;41.75
34482;BME280;20720;48.886;9.388;2023-04-21T12:43:16;97836.16;;;26.89;48.16
34482;BME280;20720;48.886;9.388;2023-04-21T12:45:41;97829.75;;;28.63;46.49
34482;BME280;20720;48.886;9.388;2023-04-21T12:48:06;97827.09;;;22.88;56.04
34482;BME280;20720;48.886;9.388;2023-04-21T12:50:31;97821.03;;;24.11;56.79
34482;BME280;20720;48.886;9.388;2023-04-21T12:52:58;97813.72;;;25.68;53.92
34482;BME280;20720;48.886;9.388;2023-04-21T12:55:23;97802.28;;;29.15;47.23
34482;BME280;20720;48.886;9.388;2023-04-21T12:57:48;97803.31;;;23.00;59.11
34482;BME280;20720;48.886;9.388;2023-04-21T13:00:14;97804.06;;;22.68;60.72
34482;BME280;20720;48.886;9.388;2023-04-21T13:02:40;97805.44;;;22.84;60.60